sensor_id;sensor_type;location;lat;lon;timestamp;pressure;altitude;pressure_sealevel;temperature;humidity
79077;BME280;68477;42.698;23.342;2023-07-31T00:00:06;95058.47;;;21.64;63.67
79077;BME280;68477;42.698;23.342;2023-07-31T00:02:34;95054.28;;;21.90;64.23
79077;BME280;68477;42.698;23.342;2023-07-31T00:05:00;95056.25;;;21.77;64.46
79077;BME280;68477;42.698;23.342;2023-07-31T00:07:25;95064.44;;;21.88;63.29
79077;BME280;68477;42.698;23.342;2023-07-31T00:09:51;95066.59;;;21.52;65.23
79077;BME280;68477;42.698;23.342;2023-07-31T00:12:16;95060.84;;;21.99;63.22
79077;BME280;68477;42.698;23.342;2023-07-31T00:14:42;95068.31;;;21.41;65.51
79077;BME280;68477;42.698;23.342;2023-07-31T00:17:07;95063.38;;;21.89;64.10
79077;BME280;68477;42.698;23.342;2023-07-31T00:19:32;95067.03;;;21.83;64.88
79077;BME280;68477;42.698;23.342;2023-07-31T00:21:58;95057.81;;;21.57;65.44
79077;BME280;68477;42.698;23.342;2023-07-31T00:24:23;95054.63;;;21.76;64.85
79077;BME280;68477;42.698;23.342;2023-07-31T00:26:49;95051.56;;;21.68;64.50
79077;BME280;68477;42.698;23.342;2023-07-31T00:29:15;95048.94;;;21.34;65.86
79077;BME280;68477;42.698;23.342;2023-07-31T00:31:40;95048.56;;;21.14;67.25
79077;BME280;68477;42.698;23.342;2023-07-31T00:34:05;95030.69;;;21.87;64.02
79077;BME280;68477;42.698;23.342;2023-07-31T00:36:31;95024.97;;;21.83;63.68
79077;BME280;68477;42.698;23.342;2023-07-31T00:38:56;95025.53;;;21.63;65.02
79077;BME280;68477;42.698;23.342;2023-07-31T00:41:22;95027.72;;;21.16;68.80
79077;BME280;68477;42.698;23.342;2023-07-31T00:43:47;95032.28;;;21.49;67.53
79077;BME280;68477;42.698;23.342;2023-07-31T00:46:13;95032.94;;;21.22;67.58
79077;BME280;68477;42.698;23.342;2023-07-31T00:48:39;95033.38;;;21.31;68.02
79077;BME280;68477;42.698;23.342;2023-07-31T00:51:04;95032.78;;;21.29;67.84
79077;BME280;68477;42.698;23.342;2023-07-31T00:53:30;95035.59;;;21.22;68.58
79077;BME280;68477;42.698;23.342;2023-07-31T00:55:55;95031.22;;;21.16;69.17
79077;BME280;68477;42.698;23.342;2023-07-31T00:58:21;95018.38;;;21.30;68.63
79077;BME280;68477;42.698;23.342;2023-07-31T01:00:47;95023.84;;;21.23;68.49
79077;BME280;68477;42.698;23.342;2023-07-31T01:03:12;95012.25;;;21.51;68.30
79077;BME280;68477;42.698;23.342;2023-07-31T01:11:52;95018.19;;;21.37;67.60
79077;BME280;68477;42.698;23.342;2023-07-31T01:13:57;95021.81;;;21.47;68.19
79077;BME280;68477;42.698;23.342;2023-07-31T01:16:25;95019.38;;;21.12;69.85
79077;BME280;68477;42.698;23.342;2023-07-31T01:18:51;95013.47;;;21.10;69.38
79077;BME280;68477;42.698;23.342;2023-07-31T01:26:38;95007.28;;;20.59;72.08
79077;BME280;68477;42.698;23.342;2023-07-31T01:29:23;95008.66;;;20.62;72.85
79077;BME280;68477;42.698;23.342;2023-07-31T01:31:53;95002.44;;;20.73;71.74
79077;BME280;68477;42.698;23.342;2023-07-31T01:34:21;94995.63;;;20.66;71.78
79077;BME280;68477;42.698;23.342;2023-07-31T01:36:47;94990.22;;;21.11;70.49
79077;BME280;68477;42.698;23.342;2023-07-31T01:39:12;95000.59;;;21.07;70.28
79077;BME280;68477;42.698;23.342;2023-07-31T01:41:39;94999.25;;;20.59;72.42
79077;BME280;68477;42.698;23.342;2023-07-31T01:44:05;95001.06;;;20.71;71.83
79077;BME280;68477;42.698;23.342;2023-07-31T01:46:31;94992.63;;;20.79;71.33
79077;BME280;68477;42.698;23.342;2023-07-31T01:48:56;94998.22;;;20.94;71.29
79077;BME280;68477;42.698;23.342;2023-07-31T01:51:22;94991.34;;;20.81;72.03
79077;BME280;68477;42.698;23.342;2023-07-31T01:53:47;94999.88;;;20.21;74.33
79077;BME280;68477;42.698;23.342;2023-07-31T01:56:13;95007.28;;;20.59;73.24
79077;BME280;68477;42.698;23.342;2023-07-31T01:58:38;95004.34;;;20.61;73.28
79077;BME280;68477;42.698;23.342;2023-07-31T02:01:04;95008.56;;;20.57;73.17
79077;BME280;68477;42.698;23.342;2023-07-31T02:03:29;95015.91;;;20.50;73.47
79077;BME280;68477;42.698;23.342;2023-07-31T02:05:55;95007.31;;;20.76;72.83
79077;BME280;68477;42.698;23.342;2023-07-31T02:08:21;95011.06;;;20.35;74.84
79077;BME280;68477;42.698;23.342;2023-07-31T02:10:47;95016.19;;;20.08;75.76
79077;BME280;68477;42.698;23.342;2023-07-31T02:13:13;95018.56;;;20.50;74.37
79077;BME280;68477;42.698;23.342;2023-07-31T02:15:38;95018.66;;;20.26;75.49
79077;BME280;68477;42.698;23.342;2023-07-31T02:18:04;95020.88;;;20.58;74.34
79077;BME280;68477;42.698;23.342;2023-07-31T02:20:29;95012.28;;;20.56;73.98
79077;BME280;68477;42.698;23.342;2023-07-31T02:22:55;95016.50;;;20.52;74.18
79077;BME280;68477;42.698;23.342;2023-07-31T02:25:20;95017.25;;;20.64;73.83
79077;BME280;68477;42.698;23.342;2023-07-31T02:27:45;95012.47;;;20.66;73.96
79077;BME280;68477;42.698;23.342;2023-07-31T02:30:11;95020.97;;;20.63;74.28
79077;BME280;68477;42.698;23.342;2023-07-31T02:32:36;95018.31;;;20.80;73.39
79077;BME280;68477;42.698;23.342;2023-07-31T02:35:02;95015.25;;;20.43;75.11
79077;BME280;68477;42.698;23.342;2023-07-31T02:37:27;95015.44;;;20.53;75.00
79077;BME280;68477;42.698;23.342;2023-07-31T02:39:54;95014.16;;;20.72;74.12
79077;BME280;68477;42.698;23.342;2023-07-31T02:42:19;95011.88;;;20.35;75.64
79077;BME280;68477;42.698;23.342;2023-07-31T02:44:45;95014.47;;;20.59;75.07
79077;BME280;68477;42.698;23.342;2023-07-31T02:47:10;95020.50;;;20.66;74.65
79077;BME280;68477;42.698;23.342;2023-07-31T02:49:36;95025.78;;;20.78;73.83
79077;BME280;68477;42.698;23.342;2023-07-31T02:52:01;95028.38;;;21.06;73.00
79077;BME280;68477;42.698;23.342;2023-07-31T02:54:27;95036.00;;;21.14;72.44
79077;BME280;68477;42.698;23.342;2023-07-31T02:56:52;95029.88;;;20.69;74.43
79077;BME280;68477;42.698;23.342;2023-07-31T02:59:18;95040.88;;;20.84;73.23
79077;BME280;68477;42.698;23.342;2023-07-31T03:01:44;95034.72;;;21.00;73.00
79077;BME280;68477;42.698;23.342;2023-07-31T03:04:09;95045.81;;;21.09;72.67
79077;BME280;68477;42.698;23.342;2023-07-31T03:06:34;95041.38;;;20.69;74.07
79077;BME280;68477;42.698;23.342;2023-07-31T03:09:00;95045.72;;;21.04;72.94
79077;BME280;68477;42.698;23.342;2023-07-31T03:11:25;95053.09;;;21.13;72.37
79077;BME280;68477;42.698;23.342;2023-07-31T03:13:51;95052.22;;;21.08;72.48
79077;BME280;68477;42.698;23.342;2023-07-31T03:16:17;95049.56;;;21.08;72.34
79077;BME280;68477;42.698;23.342;2023-07-31T03:18:42;95057.00;;;21.22;71.62
79077;BME280;68477;42.698;23.342;2023-07-31T03:21:08;95053.53;;;21.22;71.97
79077;BME280;68477;42.698;23.342;2023-07-31T03:23:33;95049.22;;;21.38;71.21
79077;BME280;68477;42.698;23.342;2023-07-31T03:26:00;95055.38;;;21.21;72.26
79077;BME280;68477;42.698;23.342;2023-07-31T03:28:27;95053.28;;;21.07;73.50
79077;BME280;68477;42.698;23.342;2023-07-31T03:30:53;95048.50;;;21.09;72.52
79077;BME280;68477;42.698;23.342;2023-07-31T03:33:19;95056.84;;;21.12;72.46
79077;BME280;68477;42.698;23.342;2023-07-31T03:35:44;95058.22;;;21.15;72.23
79077;BME280;68477;42.698;23.342;2023-07-31T03:38:10;95057.25;;;21.21;71.99
79077;BME280;68477;42.698;23.342;2023-07-31T03:40:35;95059.78;;;21.44;71.14
79077;BME280;68477;42.698;23.342;2023-07-31T03:43:01;95055.63;;;21.20;72.02
79077;BME280;68477;42.698;23.342;2023-07-31T03:45:27;95060.63;;;21.16;72.15
79077;BME280;68477;42.698;23.342;2023-07-31T03:47:53;95063.56;;;21.15;72.12
79077;BME280;68477;42.698;23.342;2023-07-31T03:50:20;95072.50;;;21.37;71.16
79077;BME280;68477;42.698;23.342;2023-07-31T03:52:45;95065.84;;;21.40;70.95
79077;BME280;68477;42.698;23.342;2023-07-31T03:55:10;95068.19;;;21.19;70.97
79077;BME280;68477;42.698;23.342;2023-07-31T03:57:36;95072.75;;;21.36;70.96
79077;BME280;68477;42.698;23.342;2023-07-31T04:00:01;95061.25;;;21.35;70.59
79077;BME280;68477;42.698;23.342;2023-07-31T04:02:27;95072.16;;;21.17;71.12
79077;BME280;68477;42.698;23.342;2023-07-31T04:04:52;95078.16;;;21.24;71.30
79077;BME280;68477;42.698;23.342;2023-07-31T04:07:17;95076.63;;;21.11;71.11
79077;BME280;68477;42.698;23.342;2023-07-31T04:09:43;95081.97;;;21.11;72.13
79077;BME280;68477;42.698;23.342;2023-07-31T04:12:08;95075.28;;;21.26;71.67
79077;BME280;68477;42.698;23.342;2023-07-31T04:14:34;95081.69;;;21.41;70.98
79077;BME280;68477;42.698;23.342;2023-07-31T04:16:59;95077.53;;;21.50;70.85
79077;BME280;68477;42.698;23.342;2023-07-31T04:19:24;95080.63;;;21.42;70.67
79077;BME280;68477;42.698;23.342;2023-07-31T04:21:50;95095.09;;;21.13;71.78
79077;BME280;68477;42.698;23.342;2023-07-31T04:24:15;95085.13;;;21.08;71.66
79077;BME280;68477;42.698;23.342;2023-07-31T04:26:41;95084.00;;;21.21;71.14
79077;BME280;68477;42.698;23.342;2023-07-31T04:29:06;95085.75;;;21.15;71.35
79077;BME280;68477;42.698;23.342;2023-07-31T04:31:33;95089.22;;;21.28;70.76
79077;BME280;68477;42.698;23.342;2023-07-31T04:33:58;95093.84;;;21.04;71.38
79077;BME280;68477;42.698;23.342;2023-07-31T04:36:24;95093.47;;;21.12;71.47
79077;BME280;68477;42.698;23.342;2023-07-31T04:38:49;95088.69;;;21.14;71.19
79077;BME280;68477;42.698;23.342;2023-07-31T04:41:15;95095.63;;;21.27;70.31
79077;BME280;68477;42.698;23.342;2023-07-31T04:43:40;95087.81;;;21.08;70.55
79077;BME280;68477;42.698;23.342;2023-07-31T04:46:06;95084.06;;;21.09;70.74
79077;BME280;68477;42.698;23.342;2023-07-31T04:48:31;95094.09;;;21.02;71.11
79077;BME280;68477;42.698;23.342;2023-07-31T04:50:57;95091.28;;;21.09;71.11
79077;BME280;68477;42.698;23.342;2023-07-31T04:53:23;95089.66;;;21.25;70.33
79077;BME280;68477;42.698;23.342;2023-07-31T04:55:48;95096.22;;;21.17;70.79
79077;BME280;68477;42.698;23.342;2023-07-31T04:58:15;95098.69;;;21.35;70.04
79077;BME280;68477;42.698;23.342;2023-07-31T05:00:40;95090.28;;;21.43;69.81
79077;BME280;68477;42.698;23.342;2023-07-31T05:03:05;95093.66;;;21.39;69.98
79077;BME280;68477;42.698;23.342;2023-07-31T05:05:32;95085.25;;;21.30;70.12
79077;BME280;68477;42.698;23.342;2023-07-31T05:07:57;95091.97;;;21.66;68.81
79077;BME280;68477;42.698;23.342;2023-07-31T05:10:22;95091.72;;;21.51;68.59
79077;BME280;68477;42.698;23.342;2023-07-31T05:12:48;95088.28;;;21.89;67.63
79077;BME280;68477;42.698;23.342;2023-07-31T05:15:13;95089.00;;;21.85;67.88
79077;BME280;68477;42.698;23.342;2023-07-31T05:17:39;95084.34;;;22.14;66.97
79077;BME280;68477;42.698;23.342;2023-07-31T05:20:05;95091.09;;;21.99;67.47
79077;BME280;68477;42.698;23.342;2023-07-31T05:22:30;95081.03;;;22.06;66.96
79077;BME280;68477;42.698;23.342;2023-07-31T05:24:56;95089.88;;;22.29;66.68
79077;BME280;68477;42.698;23.342;2023-07-31T05:27:21;95081.13;;;22.33;66.46
79077;BME280;68477;42.698;23.342;2023-07-31T05:29:47;95084.22;;;22.25;66.07
79077;BME280;68477;42.698;23.342;2023-07-31T05:32:12;95084.34;;;22.14;66.17
79077;BME280;68477;42.698;23.342;2023-07-31T05:34:38;95086.91;;;22.25;66.16
79077;BME280;68477;42.698;23.342;2023-07-31T05:37:04;95076.41;;;21.85;66.68
79077;BME280;68477;42.698;23.342;2023-07-31T05:39:29;95076.25;;;22.08;66.54
79077;BME280;68477;42.698;23.342;2023-07-31T05:41:55;95078.75;;;22.15;65.75
79077;BME280;68477;42.698;23.342;2023-07-31T05:44:20;95086.22;;;22.13;65.43
79077;BME280;68477;42.698;23.342;2023-07-31T05:46:46;95078.75;;;22.37;65.12
79077;BME280;68477;42.698;23.342;2023-07-31T05:49:11;95088.81;;;22.30;65.21
79077;BME280;68477;42.698;23.342;2023-07-31T05:51:37;95080.19;;;22.45;64.60
79077;BME280;68477;42.698;23.342;2023-07-31T05:54:02;95082.19;;;22.11;64.52
79077;BME280;68477;42.698;23.342;2023-07-31T05:56:27;95079.88;;;22.02;64.25
79077;BME280;68477;42.698;23.342;2023-07-31T05:58:54;95084.28;;;22.08;63.88
79077;BME280;68477;42.698;23.342;2023-07-31T06:01:19;95086.97;;;21.92;63.93
79077;BME280;68477;42.698;23.342;2023-07-31T06:03:46;95089.91;;;21.90;64.31
79077;BME280;68477;42.698;23.342;2023-07-31T06:06:12;95090.41;;;21.87;64.11
79077;BME280;68477;42.698;23.342;2023-07-31T06:08:38;95093.25;;;22.19;62.91
79077;BME280;68477;42.698;23.342;2023-07-31T06:11:05;95096.44;;;22.38;62.45
79077;BME280;68477;42.698;23.342;2023-07-31T06:13:31;95102.59;;;22.60;61.17
79077;BME280;68477;42.698;23.342;2023-07-31T06:15:56;95100.41;;;22.79;60.30
79077;BME280;68477;42.698;23.342;2023-07-31T06:18:22;95109.13;;;23.18;58.88
79077;BME280;68477;42.698;23.342;2023-07-31T06:20:47;95104.41;;;23.31;58.91
79077;BME280;68477;42.698;23.342;2023-07-31T06:23:18;95085.69;;;23.09;58.33
79077;BME280;68477;42.698;23.342;2023-07-31T06:25:43;95102.69;;;23.19;57.65
79077;BME280;68477;42.698;23.342;2023-07-31T06:28:09;95103.25;;;23.53;56.60
79077;BME280;68477;42.698;23.342;2023-07-31T06:30:34;95094.94;;;23.55;57.57
79077;BME280;68477;42.698;23.342;2023-07-31T06:33:00;95102.34;;;23.43;57.08
79077;BME280;68477;42.698;23.342;2023-07-31T06:35:25;95094.34;;;23.16;57.74
79077;BME280;68477;42.698;23.342;2023-07-31T06:37:51;95101.19;;;23.02;57.62
79077;BME280;68477;42.698;23.342;2023-07-31T06:40:16;95097.38;;;22.98;57.73
79077;BME280;68477;42.698;23.342;2023-07-31T06:42:42;95100.41;;;23.01;57.92
79077;BME280;68477;42.698;23.342;2023-07-31T06:45:08;95095.56;;;23.62;56.71
79077;BME280;68477;42.698;23.342;2023-07-31T06:47:35;95090.41;;;23.93;55.24
79077;BME280;68477;42.698;23.342;2023-07-31T06:50:00;95102.34;;;23.70;56.19
79077;BME280;68477;42.698;23.342;2023-07-31T06:52:26;95102.16;;;23.81;55.80
79077;BME280;68477;42.698;23.342;2023-07-31T06:55:16;95107.75;;;24.17;54.98
79077;BME280;68477;42.698;23.342;2023-07-31T06:57:48;95107.34;;;23.93;54.63
79077;BME280;68477;42.698;23.342;2023-07-31T07:00:14;95110.97;;;24.19;54.45
79077;BME280;68477;42.698;23.342;2023-07-31T07:02:41;95099.28;;;23.98;54.21
79077;BME280;68477;42.698;23.342;2023-07-31T07:05:07;95094.84;;;24.19;53.90
79077;BME280;68477;42.698;23.342;2023-07-31T07:07:33;95095.47;;;24.31;53.26
79077;BME280;68477;42.698;23.342;2023-07-31T07:09:59;95103.50;;;24.26;53.02
79077;BME280;68477;42.698;23.342;2023-07-31T07:12:32;95091.75;;;24.43;52.97
79077;BME280;68477;42.698;23.342;2023-07-31T07:14:58;95104.38;;;24.42;53.16
79077;BME280;68477;42.698;23.342;2023-07-31T07:17:25;95106.53;;;23.93;53.51
79077;BME280;68477;42.698;23.342;2023-07-31T07:19:50;95100.47;;;24.18;52.53
79077;BME280;68477;42.698;23.342;2023-07-31T07:22:16;95097.13;;;23.95;53.08
79077;BME280;68477;42.698;23.342;2023-07-31T07:24:41;95101.97;;;24.46;52.36
79077;BME280;68477;42.698;23.342;2023-07-31T07:27:07;95100.88;;;24.36;52.00
79077;BME280;68477;42.698;23.342;2023-07-31T07:29:34;95101.47;;;24.49;51.99
79077;BME280;68477;42.698;23.342;2023-07-31T07:32:00;95082.16;;;24.67;51.71
79077;BME280;68477;42.698;23.342;2023-07-31T07:34:26;95088.69;;;24.96;51.30
79077;BME280;68477;42.698;23.342;2023-07-31T07:36:52;95095.22;;;25.06;50.69
79077;BME280;68477;42.698;23.342;2023-07-31T07:39:18;95086.88;;;25.28;49.73
79077;BME280;68477;42.698;23.342;2023-07-31T07:41:44;95097.91;;;25.36;49.31
79077;BME280;68477;42.698;23.342;2023-07-31T07:44:09;95093.63;;;25.55;48.77
79077;BME280;68477;42.698;23.342;2023-07-31T07:46:35;95091.22;;;25.85;47.65
79077;BME280;68477;42.698;23.342;2023-07-31T07:49:00;95090.09;;;26.06;47.12
79077;BME280;68477;42.698;23.342;2023-07-31T07:51:26;95098.94;;;26.22;46.37
79077;BME280;68477;42.698;23.342;2023-07-31T07:53:51;95094.97;;;25.63;47.50
79077;BME280;68477;42.698;23.342;2023-07-31T07:56:17;95105.47;;;25.70;47.30
79077;BME280;68477;42.698;23.342;2023-07-31T07:58:42;95111.81;;;24.82;48.74
79077;BME280;68477;42.698;23.342;2023-07-31T08:01:08;95111.38;;;25.21;48.50
79077;BME280;68477;42.698;23.342;2023-07-31T08:03:33;95105.75;;;25.78;47.15
79077;BME280;68477;42.698;23.342;2023-07-31T08:06:00;95103.06;;;25.78;47.44
79077;BME280;68477;42.698;23.342;2023-07-31T08:08:25;95101.94;;;25.18;48.52
79077;BME280;68477;42.698;23.342;2023-07-31T08:10:51;95101.72;;;25.61;47.66
79077;BME280;68477;42.698;23.342;2023-07-31T08:13:16;95111.91;;;25.23;48.04
79077;BME280;68477;42.698;23.342;2023-07-31T08:15:42;95103.69;;;24.72;48.45
79077;BME280;68477;42.698;23.342;2023-07-31T08:18:08;95109.78;;;25.81;47.03
79077;BME280;68477;42.698;23.342;2023-07-31T08:20:34;95114.06;;;26.02;45.58
79077;BME280;68477;42.698;23.342;2023-07-31T08:22:59;95109.94;;;26.51;44.49
79077;BME280;68477;42.698;23.342;2023-07-31T08:25:25;95107.56;;;26.29;44.33
79077;BME280;68477;42.698;23.342;2023-07-31T08:27:50;95102.19;;;26.13;44.14
79077;BME280;68477;42.698;23.342;2023-07-31T08:30:18;95098.91;;;26.37;44.25
79077;BME280;68477;42.698;23.342;2023-07-31T08:32:43;95109.38;;;26.49;43.84
79077;BME280;68477;42.698;23.342;2023-07-31T08:35:09;95098.41;;;26.89;43.69
79077;BME280;68477;42.698;23.342;2023-07-31T08:37:35;95101.47;;;26.73;43.66
79077;BME280;68477;42.698;23.342;2023-07-31T08:40:00;95103.50;;;26.26;43.85
79077;BME280;68477;42.698;23.342;2023-07-31T08:42:26;95100.25;;;26.34;43.68
79077;BME280;68477;42.698;23.342;2023-07-31T08:44:53;95095.16;;;27.42;41.47
79077;BME280;68477;42.698;23.342;2023-07-31T08:47:21;95100.53;;;27.03;42.10
79077;BME280;68477;42.698;23.342;2023-07-31T08:49:48;95097.84;;;26.92;41.65
79077;BME280;68477;42.698;23.342;2023-07-31T08:52:15;95088.75;;;27.27;42.44
79077;BME280;68477;42.698;23.342;2023-07-31T08:54:41;95102.91;;;27.48;41.67
79077;BME280;68477;42.698;23.342;2023-07-31T08:57:07;95103.84;;;27.34;41.07
79077;BME280;68477;42.698;23.342;2023-07-31T08:59:34;95102.84;;;27.93;39.90
79077;BME280;68477;42.698;23.342;2023-07-31T09:02:06;95096.78;;;28.30;38.56
79077;BME280;68477;42.698;23.342;2023-07-31T09:04:33;95095.50;;;27.98;39.97
79077;BME280;68477;42.698;23.342;2023-07-31T09:07:01;95099.53;;;28.01;39.64
79077;BME280;68477;42.698;23.342;2023-07-31T09:09:29;95091.94;;;28.03;39.17
79077;BME280;68477;42.698;23.342;2023-07-31T09:11:54;95094.44;;;27.60;39.33
79077;BME280;68477;42.698;23.342;2023-07-31T09:14:21;95093.34;;;27.95;38.84
79077;BME280;68477;42.698;23.342;2023-07-31T09:16:56;95092.50;;;28.00;39.02
79077;BME280;68477;42.698;23.342;2023-07-31T09:19:32;95095.69;;;28.31;39.27
79077;BME280;68477;42.698;23.342;2023-07-31T09:21:59;95095.66;;;28.60;37.83
79077;BME280;68477;42.698;23.342;2023-07-31T09:24:26;95087.13;;;28.48;37.85
79077;BME280;68477;42.698;23.342;2023-07-31T09:26:54;95084.03;;;28.35;38.09
79077;BME280;68477;42.698;23.342;2023-07-31T09:29:20;95077.50;;;28.60;38.32
79077;BME280;68477;42.698;23.342;2023-07-31T09:31:46;95079.03;;;29.09;38.03
79077;BME280;68477;42.698;23.342;2023-07-31T09:34:11;95069.94;;;29.19;38.18
79077;BME280;68477;42.698;23.342;2023-07-31T09:36:46;95065.22;;;27.96;39.32
79077;BME280;68477;42.698;23.342;2023-07-31T09:39:13;95071.59;;;27.81;40.02
79077;BME280;68477;42.698;23.342;2023-07-31T09:41:40;95072.44;;;27.43;40.61
79077;BME280;68477;42.698;23.342;2023-07-31T09:44:06;95076.50;;;28.32;38.67
79077;BME280;68477;42.698;23.342;2023-07-31T09:46:35;95061.78;;;28.14;38.88
79077;BME280;68477;42.698;23.342;2023-07-31T09:49:11;95056.88;;;28.17;39.39
79077;BME280;68477;42.698;23.342;2023-07-31T09:51:38;95064.56;;;29.00;37.87
79077;BME280;68477;42.698;23.342;2023-07-31T09:54:12;95067.09;;;28.49;38.24
79077;BME280;68477;42.698;23.342;2023-07-31T09:56:48;95063.41;;;27.58;39.02
79077;BME280;68477;42.698;23.342;2023-07-31T09:59:18;95050.91;;;27.33;39.00
79077;BME280;68477;42.698;23.342;2023-07-31T10:01:45;95053.03;;;27.70;38.76
79077;BME280;68477;42.698;23.342;2023-07-31T10:04:12;95052.16;;;27.79;39.01
79077;BME280;68477;42.698;23.342;2023-07-31T10:06:39;95059.97;;;27.47;39.92
79077;BME280;68477;42.698;23.342;2023-07-31T10:09:06;95053.44;;;28.11;38.09
79077;BME280;68477;42.698;23.342;2023-07-31T10:11:42;95058.63;;;28.74;36.02
79077;BME280;68477;42.698;23.342;2023-07-31T10:14:09;95059.91;;;28.82;35.89
79077;BME280;68477;42.698;23.342;2023-07-31T10:16:38;95049.78;;;29.63;35.36
79077;BME280;68477;42.698;23.342;2023-07-31T10:19:05;95059.75;;;30.13;34.63
79077;BME280;68477;42.698;23.342;2023-07-31T10:21:32;95055.13;;;30.28;33.87
79077;BME280;68477;42.698;23.342;2023-07-31T10:24:03;95058.34;;;28.76;35.94
79077;BME280;68477;42.698;23.342;2023-07-31T10:26:29;95046.72;;;28.56;36.83
79077;BME280;68477;42.698;23.342;2023-07-31T10:28:56;95064.38;;;29.29;35.68
79077;BME280;68477;42.698;23.342;2023-07-31T10:31:23;95049.09;;;29.19;34.08
79077;BME280;68477;42.698;23.342;2023-07-31T10:33:50;95044.81;;;29.83;33.73
79077;BME280;68477;42.698;23.342;2023-07-31T10:36:18;95043.78;;;30.26;33.29
79077;BME280;68477;42.698;23.342;2023-07-31T10:38:45;95048.16;;;29.43;33.81
79077;BME280;68477;42.698;23.342;2023-07-31T10:41:10;95047.16;;;30.04;33.41
79077;BME280;68477;42.698;23.342;2023-07-31T10:43:37;95037.66;;;29.88;33.54
79077;BME280;68477;42.698;23.342;2023-07-31T10:46:07;95043.97;;;28.99;34.54
79077;BME280;68477;42.698;23.342;2023-07-31T10:48:37;95043.75;;;28.53;35.63
79077;BME280;68477;42.698;23.342;2023-07-31T10:51:10;95042.66;;;27.82;36.88
79077;BME280;68477;42.698;23.342;2023-07-31T10:53:36;95039.53;;;27.99;36.84
79077;BME280;68477;42.698;23.342;2023-07-31T10:56:10;95034.31;;;27.78;36.70
79077;BME280;68477;42.698;23.342;2023-07-31T10:58:43;95032.66;;;28.30;35.76
79077;BME280;68477;42.698;23.342;2023-07-31T11:01:09;95028.91;;;28.26;36.04
79077;BME280;68477;42.698;23.342;2023-07-31T11:03:48;95031.94;;;28.86;34.32
79077;BME280;68477;42.698;23.342;2023-07-31T11:06:16;95025.94;;;29.27;33.94
79077;BME280;68477;42.698;23.342;2023-07-31T11:08:43;95015.31;;;29.49;32.87
79077;BME280;68477;42.698;23.342;2023-07-31T11:11:11;95014.09;;;29.23;32.85
79077;BME280;68477;42.698;23.342;2023-07-31T11:16:15;95021.88;;;29.62;32.93
79077;BME280;68477;42.698;23.342;2023-07-31T11:18:44;95003.75;;;29.90;31.80
79077;BME280;68477;42.698;23.342;2023-07-31T11:21:29;95008.50;;;30.89;30.64
79077;BME280;68477;42.698;23.342;2023-07-31T11:23:57;95011.31;;;30.07;30.97
79077;BME280;68477;42.698;23.342;2023-07-31T11:26:24;95011.66;;;29.21;32.66
79077;BME280;68477;42.698;23.342;2023-07-31T11:28:50;95013.88;;;28.82;33.36
79077;BME280;68477;42.698;23.342;2023-07-31T11:31:16;95016.34;;;29.35;32.81
79077;BME280;68477;42.698;23.342;2023-07-31T11:33:42;95004.97;;;30.25;31.05
79077;BME280;68477;42.698;23.342;2023-07-31T11:36:18;94999.31;;;29.94;31.71
79077;BME280;68477;42.698;23.342;2023-07-31T11:38:44;95002.84;;;30.08;30.92
79077;BME280;68477;42.698;23.342;2023-07-31T11:41:10;95014.53;;;29.44;32.59
79077;BME280;68477;42.698;23.342;2023-07-31T11:43:35;95015.97;;;28.90;34.21
79077;BME280;68477;42.698;23.342;2023-07-31T11:46:04;95011.91;;;29.25;33.41
79077;BME280;68477;42.698;23.342;2023-07-31T11:48:35;95002.72;;;30.00;32.54
79077;BME280;68477;42.698;23.342;2023-07-31T11:51:06;94995.72;;;30.26;31.79
79077;BME280;68477;42.698;23.342;2023-07-31T11:53:51;95001.63;;;30.01;31.47
79077;BME280;68477;42.698;23.342;2023-07-31T11:56:19;95005.28;;;29.64;32.56
79077;BME280;68477;42.698;23.342;2023-07-31T11:58:55;94996.78;;;29.70;32.05
79077;BME280;68477;42.698;23.342;2023-07-31T12:01:22;94996.91;;;30.97;30.87
79077;BME280;68477;42.698;23.342;2023-07-31T12:03:50;94996.28;;;31.00;30.47
79077;BME280;68477;42.698;23.342;2023-07-31T12:06:17;94998.00;;;30.60;30.90
79077;BME280;68477;42.698;23.342;2023-07-31T12:08:42;94996.50;;;30.40;30.86
79077;BME280;68477;42.698;23.342;2023-07-31T12:11:09;94984.38;;;30.88;30.77
79077;BME280;68477;42.698;23.342;2023-07-31T12:13:38;94987.81;;;31.02;31.56
79077;BME280;68477;42.698;23.342;2023-07-31T12:16:04;94983.72;;;30.00;31.57
79077;BME280;68477;42.698;23.342;2023-07-31T12:18:33;94977.69;;;29.29;33.39
79077;BME280;68477;42.698;23.342;2023-07-31T12:21:00;94979.72;;;29.97;32.81
79077;BME280;68477;42.698;23.342;2023-07-31T12:23:30;94989.31;;;29.62;33.36
79077;BME280;68477;42.698;23.342;2023-07-31T12:28:50;94982.28;;;30.85;30.73
79077;BME280;68477;42.698;23.342;2023-07-31T12:31:18;94976.94;;;30.16;31.53
79077;BME280;68477;42.698;23.342;2023-07-31T12:33:45;94981.34;;;31.12;30.25
79077;BME280;68477;42.698;23.342;2023-07-31T12:36:14;94977.94;;;30.84;31.00
79077;BME280;68477;42.698;23.342;2023-07-31T12:38:41;94987.03;;;30.65;30.51
79077;BME280;68477;42.698;23.342;2023-07-31T12:41:07;94969.66;;;30.53;30.37
79077;BME280;68477;42.698;23.342;2023-07-31T12:43:33;94967.97;;;30.93;29.66
79077;BME280;68477;42.698;23.342;2023-07-31T12:45:59;94964.31;;;30.61;30.45
79077;BME280;68477;42.698;23.342;2023-07-31T12:48:24;94964.44;;;29.74;31.97
79077;BME280;68477;42.698;23.342;2023-07-31T12:50:50;94955.88;;;29.67;32.30
79077;BME280;68477;42.698;23.342;2023-07-31T12:53:15;94964.22;;;29.56;32.76
79077;BME280;68477;42.698;23.342;2023-07-31T12:55:41;94960.81;;;29.32;33.26
79077;BME280;68477;42.698;23.342;2023-07-31T12:58:07;94959.19;;;29.64;33.36
79077;BME280;68477;42.698;23.342;2023-07-31T13:00:32;94951.81;;;29.37;33.10
79077;BME280;68477;42.698;23.342;2023-07-31T13:02:59;94952.47;;;29.47;33.15